createdAt,value
2019-02-04T00:00:38.130Z,99526.95
2019-02-04T00:03:07.918Z,99527.36
2019-02-04T00:05:34.099Z,99528.63
2019-02-04T00:08:00.314Z,99529.64
2019-02-04T00:10:26.505Z,99539.19
2019-02-04T00:12:52.809Z,99544.17
2019-02-04T00:15:19.399Z,99549.89
2019-02-04T00:17:45.588Z,99556.12
2019-02-04T00:20:12.175Z,99553.92
2019-02-04T00:22:38.497Z,99552.90
2019-02-04T00:25:05.993Z,99557.95
2019-02-04T00:27:32.286Z,99564.51
2019-02-04T00:29:58.656Z,99560.27
2019-02-04T00:32:25.531Z,99567.75
2019-02-04T00:34:51.829Z,99572.63
2019-02-04T00:37:18.159Z,99574.93
2019-02-04T00:39:44.433Z,99571.38
2019-02-04T00:42:10.712Z,99573.69
2019-02-04T00:44:36.927Z,99581.19
2019-02-04T00:47:03.586Z,99581.92
2019-02-04T00:49:29.764Z,99590.64
2019-02-04T00:51:56.370Z,99592.31
2019-02-04T00:54:22.677Z,99594.48
2019-02-04T00:56:48.840Z,99593.68
2019-02-04T00:59:15.156Z,99602.78
2019-02-04T01:01:41.441Z,99600.23
2019-02-04T01:04:07.628Z,99603.92
2019-02-04T01:06:33.955Z,99608.55
2019-02-04T01:09:00.244Z,99595.98
2019-02-04T01:11:26.827Z,99600.13
2019-02-04T01:13:53.012Z,99606.52
2019-02-04T01:16:19.175Z,99610.61
2019-02-04T01:18:45.347Z,99617.09
2019-02-04T01:21:11.553Z,99615.55
2019-02-04T01:23:37.715Z,99616.98
2019-02-04T01:26:03.878Z,99615.08
2019-02-04T01:28:30.063Z,99613.00
2019-02-04T01:30:56.226Z,99616.52
2019-02-04T01:33:22.379Z,99615.83
2019-02-04T01:35:48.668Z,99612.52
2019-02-04T01:38:14.837Z,99613.91
2019-02-04T01:40:41.003Z,99619.34
2019-02-04T01:43:07.329Z,99619.78
2019-02-04T01:45:33.592Z,99626.45
2019-02-04T01:48:00.181Z,99636.55
2019-02-04T01:50:26.373Z,99642.81
2019-02-04T01:52:52.535Z,99651.41
2019-02-04T01:55:18.893Z,99647.92
2019-02-04T01:57:47.888Z,99648.92
2019-02-04T02:00:17.652Z,99649.22
2019-02-04T02:02:43.815Z,99664.23
2019-02-04T02:05:10.923Z,99665.14
2019-02-04T02:07:37.184Z,99662.11
2019-02-04T02:10:06.869Z,99664.61
2019-02-04T02:12:33.173Z,99670.95
2019-02-04T02:14:59.332Z,99670.39
2019-02-04T02:17:26.722Z,99679.46
2019-02-04T02:19:53.102Z,99678.83
2019-02-04T02:22:19.776Z,99679.54
2019-02-04T02:24:46.041Z,99679.85
2019-02-04T02:27:12.233Z,99682.57
2019-02-04T02:29:38.380Z,99684.10
2019-02-04T02:32:05.455Z,99690.28
2019-02-04T02:34:31.656Z,99690.84
2019-02-04T02:36:57.838Z,99691.50
2019-02-04T02:39:24.099Z,99694.13
2019-02-04T02:41:50.612Z,99700.00
2019-02-04T02:44:16.785Z,99699.13
2019-02-04T02:46:42.932Z,99692.25
2019-02-04T02:49:09.134Z,99690.16
2019-02-04T02:51:35.297Z,99687.63
2019-02-04T02:54:01.456Z,99690.56
2019-02-04T02:56:27.662Z,99687.03
2019-02-04T02:58:53.841Z,99686.42
2019-02-04T03:01:20.503Z,99692.78
2019-02-04T03:03:46.695Z,99697.52
2019-02-04T03:06:12.975Z,99685.25
2019-02-04T03:08:39.144Z,99688.97
2019-02-04T03:11:05.448Z,99693.03
2019-02-04T03:13:31.609Z,99695.13
2019-02-04T03:15:57.885Z,99700.70
2019-02-04T03:18:24.082Z,99707.88
2019-02-04T03:20:50.464Z,99709.98
2019-02-04T03:23:16.639Z,99710.81
2019-02-04T03:25:42.828Z,99708.72
2019-02-04T03:28:08.986Z,99710.95
2019-02-04T03:30:35.164Z,99718.50
2019-02-04T03:33:03.477Z,99714.64
2019-02-04T03:35:29.635Z,99719.16
2019-02-04T03:37:58.556Z,99723.28
2019-02-04T03:40:26.957Z,99726.09
2019-02-04T03:42:53.123Z,99737.61
2019-02-04T03:45:19.586Z,99732.36
2019-02-04T03:47:45.780Z,99733.06
2019-02-04T03:50:13.139Z,99737.56
2019-02-04T03:52:39.395Z,99739.78
2019-02-04T03:55:09.228Z,99743.56
2019-02-04T03:57:35.417Z,99739.24
2019-02-04T04:00:01.731Z,99740.56
2019-02-04T04:02:28.106Z,99743.05
2019-02-04T04:04:54.380Z,99752.15
2019-02-04T04:07:20.531Z,99764.51
2019-02-04T04:09:46.740Z,99763.31
2019-02-04T04:12:13.297Z,99771.59
2019-02-04T04:14:39.571Z,99769.16
2019-02-04T04:17:05.867Z,99774.19
2019-02-04T04:19:32.037Z,99780.25
2019-02-04T04:21:58.216Z,99782.14
2019-02-04T04:24:24.536Z,99784.45
2019-02-04T04:26:50.730Z,99782.77
2019-02-04T04:29:16.999Z,99787.67
2019-02-04T04:31:43.704Z,99792.98
2019-02-04T04:34:09.922Z,99795.61
2019-02-04T04:36:36.095Z,99799.41
2019-02-04T04:39:04.786Z,99804.61
2019-02-04T04:41:31.085Z,99811.47
2019-02-04T04:43:57.250Z,99812.72
2019-02-04T04:46:23.569Z,99817.90
2019-02-04T04:48:49.749Z,99822.94
2019-02-04T04:51:15.922Z,99827.34
2019-02-04T04:53:42.218Z,99821.84
2019-02-04T04:56:08.389Z,99821.19
2019-02-04T04:58:34.661Z,99826.84
2019-02-04T05:01:00.879Z,99827.56
2019-02-04T05:03:27.050Z,99821.23
2019-02-04T05:05:53.330Z,99832.66
2019-02-04T05:08:19.552Z,99827.06
2019-02-04T05:10:47.113Z,99826.20
2019-02-04T05:13:13.285Z,99832.58
2019-02-04T05:15:40.959Z,99831.59
2019-02-04T05:18:07.101Z,99831.27
2019-02-04T05:20:33.416Z,99824.82
2019-02-04T05:22:59.612Z,99833.84
2019-02-04T05:25:25.783Z,99836.44
2019-02-04T05:27:52.353Z,99842.50
2019-02-04T05:30:20.374Z,99843.91
2019-02-04T05:32:46.544Z,99859.86
2019-02-04T05:35:12.976Z,99872.59
2019-02-04T05:37:39.149Z,99875.19
2019-02-04T05:40:09.029Z,99873.09
2019-02-04T05:42:35.335Z,99883.02
2019-02-04T05:45:02.133Z,99884.27
2019-02-04T05:47:28.295Z,99892.61
2019-02-04T05:49:54.569Z,99905.51
2019-02-04T05:52:20.781Z,99911.24
2019-02-04T05:54:46.949Z,99914.80
2019-02-04T05:57:13.126Z,99918.88
2019-02-04T05:59:39.419Z,99925.87
2019-02-04T06:02:05.706Z,99929.09
2019-02-04T06:04:32.296Z,99917.06
2019-02-04T06:06:58.512Z,99920.30
2019-02-04T06:09:24.775Z,99923.62
2019-02-04T06:11:51.055Z,99931.09
2019-02-04T06:14:17.282Z,99928.53
2019-02-04T06:16:43.437Z,99925.16
2019-02-04T06:19:09.621Z,99921.69
2019-02-04T06:21:35.812Z,99923.45
2019-02-04T06:24:02.188Z,99940.14
2019-02-04T06:26:28.363Z,99946.55
2019-02-04T06:28:54.559Z,99947.03
2019-02-04T06:31:20.739Z,99953.38
2019-02-04T06:33:47.013Z,99959.80
2019-02-04T06:36:13.240Z,99960.61
2019-02-04T06:38:39.408Z,99970.97
2019-02-04T06:41:05.574Z,99976.11
2019-02-04T06:43:31.820Z,99979.98
2019-02-04T06:45:58.079Z,99978.75
2019-02-04T06:48:24.263Z,99984.35
2019-02-04T06:50:51.005Z,99978.67
2019-02-04T06:53:17.428Z,99978.55
2019-02-04T06:55:43.606Z,99976.47
2019-02-04T06:58:09.915Z,99971.41
2019-02-04T07:00:36.089Z,99971.84
2019-02-04T07:03:02.364Z,99964.41
2019-02-04T07:05:28.679Z,99967.83
2019-02-04T07:07:54.844Z,99965.74
2019-02-04T07:10:25.622Z,99964.98
2019-02-04T07:12:51.832Z,99963.75
2019-02-04T07:15:18.455Z,99963.27
2019-02-04T07:17:44.625Z,99968.03
2019-02-04T07:20:14.513Z,99967.14
2019-02-04T07:22:40.672Z,99965.45
2019-02-04T07:25:12.398Z,99968.19
2019-02-04T07:27:38.694Z,99964.27
2019-02-04T07:30:29.312Z,99957.11
2019-02-04T07:32:55.925Z,99959.75
2019-02-04T07:35:22.095Z,99961.54
2019-02-04T07:37:48.332Z,99968.45
2019-02-04T07:40:17.630Z,99971.33
2019-02-04T07:42:43.796Z,99980.70
2019-02-04T07:45:10.103Z,99982.22
2019-02-04T07:47:36.704Z,99983.89
2019-02-04T07:50:05.274Z,99989.17
2019-02-04T07:52:32.558Z,99988.89
2019-02-04T07:54:58.759Z,99991.63
2019-02-04T07:57:24.928Z,99990.64
2019-02-04T07:59:51.104Z,99994.50
2019-02-04T08:02:17.329Z,99998.28
2019-02-04T08:04:43.607Z,100001.16
2019-02-04T08:07:09.784Z,100001.41
2019-02-04T08:09:36.284Z,100001.16
2019-02-04T08:12:02.965Z,99999.89
2019-02-04T08:14:29.229Z,100002.38
2019-02-04T08:16:55.431Z,100002.55
2019-02-04T08:19:21.698Z,100008.83
2019-02-04T08:21:47.863Z,100001.95
2019-02-04T08:24:14.160Z,100000.61
2019-02-04T08:26:40.318Z,100006.80
2019-02-04T08:29:06.625Z,100008.67
2019-02-04T08:31:32.927Z,99995.92
2019-02-04T08:33:59.196Z,99999.70
2019-02-04T08:36:25.357Z,100007.42
2019-02-04T08:38:52.517Z,100004.44
2019-02-04T08:41:18.688Z,100005.64
2019-02-04T08:43:44.960Z,100011.13
2019-02-04T08:46:11.166Z,100007.34
2019-02-04T08:48:37.736Z,100002.12
2019-02-04T08:51:03.989Z,100003.50
2019-02-04T08:53:30.280Z,100001.92
2019-02-04T08:55:56.454Z,99999.80
2019-02-04T08:58:22.632Z,99998.12
2019-02-04T09:00:48.935Z,99996.44
2019-02-04T09:03:15.590Z,99997.91
2019-02-04T09:05:41.744Z,99992.66
2019-02-04T09:08:11.077Z,99998.59
2019-02-04T09:10:39.152Z,99989.53
2019-02-04T09:13:06.372Z,99997.17
2019-02-04T09:15:32.580Z,99994.37
2019-02-04T09:17:59.548Z,99998.75
2019-02-04T09:20:25.722Z,99992.70
2019-02-04T09:22:52.004Z,99991.44
2019-02-04T09:25:25.900Z,99991.52
2019-02-04T09:27:52.281Z,99988.31
2019-02-04T09:30:25.730Z,99995.76
2019-02-04T09:32:52.053Z,99989.16
2019-02-04T09:35:20.078Z,99990.20
2019-02-04T09:37:46.412Z,99992.02
2019-02-04T09:40:25.453Z,99984.33
2019-02-04T09:42:51.705Z,99987.16
2019-02-04T09:45:17.950Z,99988.03
2019-02-04T09:47:44.111Z,99972.33
2019-02-04T09:50:21.860Z,99973.81
2019-02-04T09:52:47.541Z,99975.45
2019-02-04T09:55:17.162Z,99969.44
2019-02-04T09:57:43.532Z,99957.60
2019-02-04T10:00:13.404Z,99958.70
2019-02-04T10:02:42.464Z,99964.50
2019-02-04T10:05:11.460Z,99956.76
2019-02-04T10:07:37.623Z,99950.73
2019-02-04T10:10:07.397Z,99946.36
2019-02-04T10:12:33.790Z,99944.97
2019-02-04T10:15:00.025Z,99952.64
2019-02-04T10:17:26.238Z,99955.34
2019-02-04T10:19:52.445Z,99956.89
2019-02-04T10:22:18.745Z,99954.73
2019-02-04T10:24:45.095Z,99955.03
2019-02-04T10:27:11.991Z,99944.42
2019-02-04T10:29:38.255Z,99955.07
2019-02-04T10:32:04.749Z,99943.28
2019-02-04T10:34:31.015Z,99950.17
2019-02-04T10:36:57.211Z,99944.52
2019-02-04T10:39:30.596Z,99944.51
2019-02-04T10:41:57.009Z,99945.95
2019-02-04T10:44:23.237Z,99943.77
2019-02-04T10:46:49.501Z,99945.89
2019-02-04T10:49:16.200Z,99944.12
2019-02-04T10:51:42.530Z,99939.70
2019-02-04T10:54:08.941Z,99945.53
2019-02-04T10:56:35.203Z,99937.44
2019-02-04T10:59:01.409Z,99939.51
2019-02-04T11:01:27.799Z,99932.14
2019-02-04T11:03:54.093Z,99928.83
2019-02-04T11:06:20.280Z,99937.30
2019-02-04T11:08:46.687Z,99930.86
2019-02-04T11:11:13.060Z,99938.19
2019-02-04T11:13:39.545Z,99936.33
2019-02-04T11:16:06.061Z,99926.75
2019-02-04T11:18:32.317Z,99918.75
2019-02-04T11:20:58.661Z,99935.72
2019-02-04T11:23:24.842Z,99931.31
2019-02-04T11:25:53.154Z,99928.19
2019-02-04T11:28:19.611Z,99921.50
2019-02-04T11:30:49.369Z,99928.66
2019-02-04T11:33:15.758Z,99922.80
2019-02-04T11:35:42.070Z,99925.28
2019-02-04T11:38:08.191Z,99928.44
2019-02-04T11:40:38.910Z,99926.89
2019-02-04T11:43:05.997Z,99912.38
2019-02-04T11:45:32.353Z,99915.91
2019-02-04T11:47:59.464Z,99913.78
2019-02-04T11:50:25.838Z,99914.28
2019-02-04T11:52:52.288Z,99915.88
2019-02-04T11:55:19.076Z,99908.81
2019-02-04T11:57:45.337Z,99903.22
2019-02-04T12:00:18.226Z,99904.48
2019-02-04T12:02:44.636Z,99905.23
2019-02-04T12:05:14.384Z,99915.38
2019-02-04T12:07:40.671Z,99912.67
2019-02-04T12:10:36.037Z,99903.41
2019-02-04T12:13:02.360Z,99908.62
2019-02-04T12:15:28.531Z,99904.31
2019-02-04T12:17:54.743Z,99903.41
2019-02-04T12:20:21.054Z,99906.61
2019-02-04T12:22:47.643Z,99903.56
2019-02-04T12:25:19.962Z,99902.13
2019-02-04T12:27:46.122Z,99901.66
2019-02-04T12:30:16.492Z,99905.78
2019-02-04T12:32:42.809Z,99908.45
2019-02-04T12:35:10.575Z,99894.49
2019-02-04T12:37:36.739Z,99907.01
2019-02-04T12:40:05.543Z,99912.84
2019-02-04T12:42:31.850Z,99903.19
2019-02-04T12:44:58.066Z,99901.65
2019-02-04T12:47:24.872Z,99899.16
2019-02-04T12:49:51.133Z,99895.59
2019-02-04T12:52:17.437Z,99895.30
2019-02-04T12:54:43.623Z,99896.97
2019-02-04T12:57:10.008Z,99893.34
2019-02-04T12:59:36.263Z,99893.38
2019-02-04T13:02:02.585Z,99898.36
2019-02-04T13:04:28.843Z,99895.84
2019-02-04T13:06:57.301Z,99900.01
2019-02-04T13:09:23.498Z,99901.61
2019-02-04T13:11:49.669Z,99902.97
2019-02-04T13:14:15.959Z,99909.59
2019-02-04T13:16:42.268Z,99908.16
2019-02-04T13:19:11.301Z,99894.73
2019-02-04T13:21:45.220Z,99911.82
2019-02-04T13:24:05.680Z,99911.27
2019-02-04T13:26:31.851Z,99923.27
2019-02-04T13:28:58.004Z,99920.30
2019-02-04T13:31:26.153Z,99921.10
2019-02-04T13:33:52.326Z,99918.63
2019-02-04T13:36:18.594Z,99929.56
2019-02-04T13:38:47.079Z,99921.25
2019-02-04T13:41:13.341Z,99929.30
2019-02-04T13:43:42.486Z,99929.74
2019-02-04T13:46:09.958Z,99932.44
2019-02-04T13:48:36.460Z,99939.22
2019-02-04T13:51:03.185Z,99939.46
2019-02-04T13:53:29.565Z,99938.97
2019-02-04T13:55:58.661Z,99946.16
2019-02-04T13:58:24.841Z,99943.17
2019-02-04T14:00:51.361Z,99943.17
2019-02-04T14:03:18.055Z,99944.05
2019-02-04T14:05:44.511Z,99946.48
2019-02-04T14:08:10.729Z,99943.50
2019-02-04T14:10:39.606Z,99945.83
2019-02-04T14:13:06.279Z,99942.31
2019-02-04T14:15:35.512Z,99949.44
2019-02-04T14:18:01.361Z,99948.72
2019-02-04T14:20:27.612Z,99957.42
2019-02-04T14:22:53.843Z,99965.38
2019-02-04T14:25:20.301Z,99958.17
2019-02-04T14:27:46.669Z,99961.02
2019-02-04T14:30:16.477Z,99966.84
2019-02-04T14:32:42.661Z,99972.25
2019-02-04T14:35:09.016Z,99975.27
2019-02-04T14:37:35.518Z,99978.83
2019-02-04T14:40:17.752Z,99971.45
2019-02-04T14:42:31.442Z,99988.73
2019-02-04T14:44:57.832Z,99978.81
2019-02-04T14:47:30.775Z,99989.48
2019-02-04T14:50:15.889Z,99991.28
2019-02-04T14:52:45.724Z,99995.98
2019-02-04T14:55:24.474Z,99999.92
2019-02-04T14:58:09.621Z,100000.44
2019-02-04T15:00:56.056Z,99998.55
2019-02-04T15:03:43.860Z,100003.41
2019-02-04T15:06:13.661Z,100004.75
2019-02-04T15:08:52.400Z,100015.59
2019-02-04T15:11:22.354Z,100016.70
2019-02-04T15:14:07.578Z,100018.34
2019-02-04T15:16:37.916Z,100020.73
2019-02-04T15:19:24.290Z,100017.80
2019-02-04T15:22:17.299Z,100018.84
2019-02-04T15:25:06.909Z,100029.38
2019-02-04T15:27:37.213Z,100031.79
2019-02-04T15:30:10.001Z,100032.67
2019-02-04T15:32:42.826Z,100036.70
2019-02-04T15:35:36.800Z,100037.86
2019-02-04T15:38:15.501Z,100042.22
2019-02-04T15:40:51.110Z,100048.55
2019-02-04T15:43:33.210Z,100050.47
2019-02-04T15:46:08.665Z,100058.38
2019-02-04T15:48:44.687Z,100057.25
2019-02-04T15:51:20.584Z,100059.78
2019-02-04T15:53:46.784Z,100071.16
2019-02-04T15:56:12.943Z,100070.34
2019-02-04T15:58:39.107Z,100073.28
2019-02-04T16:01:05.524Z,100077.58
2019-02-04T16:03:31.810Z,100077.34
2019-02-04T16:05:57.975Z,100086.94
2019-02-04T16:08:24.272Z,100084.78
2019-02-04T16:10:50.567Z,100094.59
2019-02-04T16:13:16.842Z,100093.17
2019-02-04T16:15:43.134Z,100102.23
2019-02-04T16:18:09.434Z,100100.14
2019-02-04T16:20:35.719Z,100099.87
2019-02-04T16:23:02.006Z,100101.08
2019-02-04T16:25:28.174Z,100106.66
2019-02-04T16:27:54.440Z,100108.06
2019-02-04T16:30:21.024Z,100106.94
2019-02-04T16:32:47.279Z,100124.17
2019-02-04T16:35:16.358Z,100123.66
2019-02-04T16:37:42.786Z,100129.11
2019-02-04T16:40:12.260Z,100131.87
2019-02-04T16:42:38.543Z,100139.48
2019-02-04T16:45:08.047Z,100136.38
2019-02-04T16:47:34.235Z,100146.48
2019-02-04T16:50:00.439Z,100150.37
2019-02-04T16:52:26.977Z,100153.84
2019-02-04T16:54:53.248Z,100153.79
2019-02-04T16:57:19.410Z,100158.95
2019-02-04T16:59:45.721Z,100158.53
2019-02-04T17:02:11.991Z,100159.19
2019-02-04T17:04:38.266Z,100169.23
2019-02-04T17:07:04.977Z,100166.70
2019-02-04T17:09:31.148Z,100170.89
2019-02-04T17:11:57.715Z,100174.98
2019-02-04T17:14:24.025Z,100184.01
2019-02-04T17:16:50.406Z,100177.59
2019-02-04T17:19:16.564Z,100179.59
2019-02-04T17:21:42.872Z,100187.20
2019-02-04T17:24:09.158Z,100189.91
2019-02-04T17:26:35.322Z,100192.72
2019-02-04T17:29:01.674Z,100194.48
2019-02-04T17:31:28.339Z,100192.37
2019-02-04T17:33:54.666Z,100198.25
2019-02-04T17:36:21.017Z,100206.03
2019-02-04T17:38:47.291Z,100212.03
2019-02-04T17:41:13.854Z,100204.84
2019-02-04T17:43:40.149Z,100205.91
2019-02-04T17:46:06.318Z,100216.11
2019-02-04T17:48:32.475Z,100209.22
2019-02-04T17:50:59.331Z,100213.31
2019-02-04T17:53:33.951Z,100218.59
2019-02-04T17:55:53.874Z,100217.95
2019-02-04T17:58:20.082Z,100219.91
2019-02-04T18:00:48.148Z,100217.23
2019-02-04T18:03:14.708Z,100219.67
2019-02-04T18:05:40.899Z,100222.77
2019-02-04T18:08:07.663Z,100225.30
2019-02-04T18:10:33.833Z,100227.69
2019-02-04T18:13:00.020Z,100229.91
2019-02-04T18:15:26.285Z,100231.92
2019-02-04T18:17:52.563Z,100229.72
2019-02-04T18:20:18.762Z,100235.34
2019-02-04T18:22:45.026Z,100238.56
2019-02-04T18:25:16.510Z,100234.44
2019-02-04T18:27:42.879Z,100238.56
2019-02-04T18:30:17.327Z,100236.72
2019-02-04T18:32:43.492Z,100236.81
2019-02-04T18:35:11.782Z,100236.89
2019-02-04T18:37:38.153Z,100239.84
2019-02-04T18:40:12.117Z,100236.29
2019-02-04T18:42:38.222Z,100237.44
2019-02-04T18:45:07.996Z,100232.63
2019-02-04T18:47:40.257Z,100236.39
2019-02-04T18:50:09.462Z,100235.98
2019-02-04T18:52:37.105Z,100239.61
2019-02-04T18:55:06.613Z,100245.45
2019-02-04T18:57:34.938Z,100244.24
2019-02-04T19:00:01.156Z,100247.66
2019-02-04T19:02:27.328Z,100250.70
2019-02-04T19:04:53.551Z,100257.73
2019-02-04T19:07:19.721Z,100254.90
2019-02-04T19:09:45.979Z,100255.80
2019-02-04T19:12:12.827Z,100258.34
2019-02-04T19:14:39.086Z,100262.52
2019-02-04T19:17:05.266Z,100264.09
2019-02-04T19:19:31.670Z,100264.31
2019-02-04T19:21:57.801Z,100274.33
2019-02-04T19:24:23.960Z,100275.17
2019-02-04T19:26:50.203Z,100281.84
2019-02-04T19:29:16.450Z,100275.17
2019-02-04T19:31:43.028Z,100281.13
2019-02-04T19:34:09.334Z,100282.59
2019-02-04T19:36:35.599Z,100282.16
2019-02-04T19:39:03.698Z,100285.85
2019-02-04T19:41:29.898Z,100291.48
2019-02-04T19:43:56.053Z,100282.81
2019-02-04T19:46:22.218Z,100290.34
2019-02-04T19:48:48.408Z,100297.84
2019-02-04T19:51:15.079Z,100294.94
2019-02-04T19:53:41.368Z,100293.35
2019-02-04T19:56:07.648Z,100295.34
2019-02-04T19:58:33.844Z,100294.49
2019-02-04T20:01:00.005Z,100294.93
2019-02-04T20:03:26.305Z,100300.85
2019-02-04T20:05:52.579Z,100307.43
2019-02-04T20:08:18.752Z,100307.24
2019-02-04T20:10:45.467Z,100307.24
2019-02-04T20:13:11.739Z,100311.77
2019-02-04T20:15:38.130Z,100310.20
2019-02-04T20:18:04.665Z,100310.20
2019-02-04T20:20:30.842Z,100310.26
2019-02-04T20:22:57.135Z,100306.33
2019-02-04T20:25:30.262Z,100310.00
2019-02-04T20:27:56.675Z,100304.72
2019-02-04T20:30:45.820Z,100308.10
2019-02-04T20:33:10.508Z,100307.48
2019-02-04T20:35:35.925Z,100313.11
2019-02-04T20:38:02.228Z,100316.39
2019-02-04T20:40:28.482Z,100311.12
2019-02-04T20:42:54.771Z,100312.50
2019-02-04T20:45:21.565Z,100307.65
2019-02-04T20:47:53.906Z,100307.53
2019-02-04T20:50:29.064Z,100307.32
2019-02-04T20:52:55.231Z,100304.09
2019-02-04T20:55:21.392Z,100305.60
2019-02-04T20:57:48.586Z,100304.03
2019-02-04T21:00:18.155Z,100307.38
2019-02-04T21:02:44.435Z,100308.31
2019-02-04T21:05:10.742Z,100307.83
2019-02-04T21:07:36.904Z,100309.04
2019-02-04T21:10:06.678Z,100318.16
2019-02-04T21:12:32.988Z,100317.48
2019-02-04T21:14:59.277Z,100318.72
2019-02-04T21:17:29.576Z,100331.72
2019-02-04T21:19:55.786Z,100329.33
2019-02-04T21:22:22.056Z,100342.11
2019-02-04T21:24:56.195Z,100342.45
2019-02-04T21:27:16.573Z,100348.16
2019-02-04T21:29:42.821Z,100352.57
2019-02-04T21:32:09.130Z,100362.20
2019-02-04T21:34:35.352Z,100354.55
2019-02-04T21:37:01.852Z,100356.97
2019-02-04T21:39:28.033Z,100357.54
2019-02-04T21:41:54.230Z,100353.66
2019-02-04T21:44:20.401Z,100356.70
2019-02-04T21:46:46.574Z,100352.70
2019-02-04T21:49:12.769Z,100350.47
2019-02-04T21:51:38.942Z,100353.39
2019-02-04T21:54:05.205Z,100352.80
2019-02-04T21:56:31.935Z,100356.56
2019-02-04T21:58:58.245Z,100361.66
2019-02-04T22:01:24.426Z,100357.61
2019-02-04T22:03:51.596Z,100368.99
2019-02-04T22:06:17.866Z,100360.80
2019-02-04T22:08:44.140Z,100369.97
2019-02-04T22:11:10.437Z,100369.16
2019-02-04T22:13:36.615Z,100374.23
2019-02-04T22:16:03.276Z,100371.99
2019-02-04T22:18:29.489Z,100369.52
2019-02-04T22:20:55.757Z,100375.58
2019-02-04T22:23:21.923Z,100379.27
2019-02-04T22:25:48.505Z,100381.95
2019-02-04T22:28:14.669Z,100389.95
2019-02-04T22:30:41.345Z,100389.94
2019-02-04T22:33:07.817Z,100394.94
2019-02-04T22:35:34.086Z,100399.35
2019-02-04T22:38:00.460Z,100389.94
2019-02-04T22:40:29.727Z,100393.30
2019-02-04T22:42:56.779Z,100392.77
2019-02-04T22:45:23.046Z,100388.44
2019-02-04T22:47:49.249Z,100395.15
2019-02-04T22:50:22.157Z,100397.77
2019-02-04T22:52:48.317Z,100400.81
2019-02-04T22:55:15.831Z,100406.47
2019-02-04T22:57:41.997Z,100410.79
2019-02-04T23:00:23.461Z,100417.33
2019-02-04T23:02:49.747Z,100409.77
2019-02-04T23:05:15.932Z,100415.56
2019-02-04T23:07:42.232Z,100412.44
2019-02-04T23:10:08.818Z,100411.42
2019-02-04T23:12:35.084Z,100411.57
2019-02-04T23:15:01.387Z,100411.38
2019-02-04T23:17:27.564Z,100410.77
2019-02-04T23:19:53.952Z,100411.78
2019-02-04T23:22:20.154Z,100408.11
2019-02-04T23:24:46.441Z,100413.94
2019-02-04T23:27:12.621Z,100406.83
2019-02-04T23:29:38.943Z,100415.81
2019-02-04T23:32:05.122Z,100405.67
2019-02-04T23:34:31.393Z,100405.20
2019-02-04T23:36:57.591Z,100392.75
2019-02-04T23:39:23.784Z,100395.40
2019-02-04T23:41:49.944Z,100400.17
2019-02-04T23:44:16.276Z,100397.30
2019-02-04T23:46:42.460Z,100394.92
2019-02-04T23:49:08.915Z,100393.30
2019-02-04T23:51:35.223Z,100387.02
2019-02-04T23:54:01.395Z,100392.55
2019-02-04T23:56:27.567Z,100400.33
2019-02-04T23:58:53.893Z,100393.55
